Vereeniging, South Africa
Current Conditions -  °F | °C
As of 11:00 PM on Thursday 18 Dec 2014 (Local Time) from FAOR Reporting Station
Clear Clear  
Wind Chill: 64°   Ceiling: Unl
Heat Index: 64°   Visibility: 4mi
Dew Point: 57°   Wind: 5mph
Humidity: 77%   Direction: 300°WNW
Pressure: 30.15"   Gusts: NA
Location:  26.65°S, 27.96°E
Report Text: FAOR 182100Z 30004KT 270V330 7000 NSC 18/14 Q1021 NOSIG
Loading
Personal Weather Stations






























Interactive Weather Map New forecast layout! Learn more

10-Day Weather Forecast

Advertisements
Track Severe Weather on mobile